Latest Coastal Weather Observations for Bundaberg

IDQ60701

Issued at 1:11 am EST Saturday 23 September 2017 (issued every 10 minutes, with the page automatically refreshed every 10 minutes)

About coastal observations | Map of coastal stations | Coastal observations for QLD | Marine services | Other Formats
Station Details ID: 039128 Name: BUNDABERG AERO Lat: -24.91 Lon: 152.32 Height: 30.82 m
Data from the previous 72 hours. | See also: Recent months at Bundaberg
Date/Time
EST
Temp
°C
Wind Pressure Rain since
9am
mm
Weather Cloud Vis
km
Sea
Height
m
Swell
Dir  Spd
kts
Gust
kts
hPa Trend Height
m
Period
s
Dir
23/01:00am 20.7 N 9 12 1017.8 - 0.0 - Partly cloudy 10 - - - -
23/12:30am 20.8 N 6 8 1018.3 - 0.0 - Partly cloudy 10 - - - -
23/12:00am 20.9 N 9 12 1018.3 - 0.0 - Mostly clear 10 - - - -
 
Date/Time
EST
Temp
°C
Wind Pressure Rain since
9am
mm
Weather Cloud Vis
km
Sea
Height
m
Swell
Dir  Spd
kts
Gust
kts
hPa Trend Height
m
Period
s
Dir
22/11:30pm 20.9 N 9 12 1018.4 - 0.0 - Partly cloudy 10 - - - -
22/11:00pm 20.6 NNW 10 13 1018.3 - 0.0 - Partly cloudy 10 - - - -
22/10:30pm 20.6 N 11 13 1018.2 - 0.0 - - 10 - - - -
22/10:00pm 20.6 N 10 12 1018.4 - 0.0 - - 10 - - - -
22/09:30pm 20.9 N 10 13 1018.4 - 0.0 - - 10 - - - -
22/09:00pm 21.1 N 10 15 1018.3 - 0.0 - Mostly clear 10 - - - -
22/08:30pm 21.2 N 11 14 1018.2 - 0.0 - - 7 - - - -
22/08:00pm 21.2 N 11 14 1017.6 - 0.0 - - 9 - - - -
22/07:30pm 21.4 N 11 13 1017.3 - 0.0 - - 10 - - - -
22/07:00pm 21.5 N 11 14 1017.1 - 0.0 - - 10 - - - -
22/06:30pm 21.8 N 11 14 1016.8 - 0.0 - - 10 - - - -
22/06:00pm 22.2 N 12 15 1016.7 - 0.0 - - 10 - - - -
22/05:30pm 23.0 N 13 17 1016.3 - 0.0 - - 10 - - - -
22/05:00pm 23.9 N 14 18 1016.3 - 0.0 - - 10 - - - -
22/04:30pm 24.8 N 13 16 1016.0 - 0.0 - - 10 - - - -
22/04:00pm 24.7 N 15 19 1016.0 - 0.0 - - 10 - - - -
22/03:30pm 25.0 N 14 20 1016.0 - 0.0 - - 10 - - - -
22/03:00pm 25.6 N 13 17 1016.1 - 0.0 - - 10 - - - -
22/02:30pm 24.8 NNW 16 20 1016.3 - 0.0 - - 10 - - - -
22/02:00pm 24.7 N 16 20 1016.3 - 0.0 - - 10 - - - -
22/01:30pm 25.6 N 17 23 1016.2 - 0.0 - Partly cloudy 10 - - - -
22/01:00pm 26.4 N 15 19 1016.9 - 0.0 - - 10 - - - -
22/12:30pm 27.3 N 13 19 1017.4 - 0.0 - - 10 - - - -
22/12:00pm 26.8 N 13 18 1017.8 - 0.0 - - 10 - - - -
22/11:30am 27.0 N 13 20 1018.3 - 0.0 - - 10 - - - -
22/11:00am 26.4 N 14 19 1018.8 - 0.0 - Partly cloudy 10 - - - -
22/10:30am 25.3 N 12 17 1019.3 - 0.0 - Partly cloudy 10 - - - -
22/10:00am 25.6 NNW 11 16 1019.4 - 0.0 - Partly cloudy 10 - - - -
22/09:30am 25.6 NNW 10 15 1019.7 - 0.0 - Partly cloudy 10 - - - -
22/09:00am 24.3 N 10 14 1019.9 - 0.0 - Partly cloudy 10 - - - -
22/08:30am 24.2 NNW 8 13 1019.8 - 0.0 - Partly cloudy 10 - - - -
22/08:00am 23.4 NNW 8 11 1019.6 - 0.0 - Partly cloudy 10 - - - -
22/07:30am 22.0 NE 1 3 1019.1 - 0.0 - Partly cloudy 10 - - - -
22/07:00am 19.4 CALM 0 0 1018.8 - 0.0 - Partly cloudy 10 - - - -
22/06:30am 17.9 S 2 4 1018.5 - 0.0 - - 10 - - - -
22/06:00am 17.1 S 2 6 1018.1 - 0.0 - - 10 - - - -
22/05:30am 17.5 CALM 0 0 1017.9 - 0.0 - Partly cloudy 10 - - - -
22/05:00am 17.7 W 1 5 1017.5 - 0.0 - Partly cloudy 10 - - - -
22/04:30am 17.7 SSE 3 4 1017.3 - 0.0 - Partly cloudy 10 - - - -
22/04:00am 17.5 CALM 0 0 1017.0 - 0.0 - Partly cloudy 10 - - - -
22/03:30am 17.7 CALM 0 0 1016.8 - 0.0 - Partly cloudy 10 - - - -
22/03:00am 17.1 CALM 0 0 1016.9 - 0.0 - Mostly cloudy 10 - - - -
22/02:30am 17.3 CALM 0 0 1017.1 - 0.0 - Partly cloudy 10 - - - -
22/02:00am 18.0 CALM 0 0 1017.1 - 0.0 - Partly cloudy 10 - - - -
22/01:30am 17.9 CALM 0 0 1017.5 - 0.0 - Partly cloudy 10 - - - -
22/01:00am 18.1 N 1 4 1017.7 - 0.0 - Partly cloudy 10 - - - -
22/12:30am 18.2 NE 2 5 1017.7 - 0.0 - - 10 - - - -
22/12:00am 18.1 E 4 5 1017.7 - 0.0 - - 10 - - - -
 
Date/Time
EST
Temp
°C
Wind Pressure Rain since
9am
mm
Weather Cloud Vis
km
Sea
Height
m
Swell
Dir  Spd
kts
Gust
kts
hPa Trend Height
m
Period
s
Dir
21/11:30pm 19.3 NE 4 5 1017.8 - 0.0 - - 10 - - - -
21/11:00pm 20.1 NNE 6 8 1017.8 - 0.0 - - 10 - - - -
21/10:30pm 20.4 N 5 7 1017.8 - 0.0 - - 10 - - - -
21/10:00pm 20.6 N 6 8 1017.8 - 0.0 - - 10 - - - -
21/09:30pm 20.9 N 7 9 1017.9 - 0.0 - - 10 - - - -
21/09:00pm 21.0 N 7 10 1018.0 - 0.0 - - 10 - - - -
21/08:30pm 21.1 N 7 9 1017.9 - 0.0 - - 10 - - - -
21/08:00pm 21.1 NNW 9 11 1017.7 - 0.0 - - 10 - - - -
21/07:30pm 21.5 N 10 13 1017.2 - 0.0 - - 10 - - - -
21/07:00pm 21.8 NNE 10 13 1016.9 - 0.0 - Partly cloudy 8 - - - -
21/06:30pm 22.1 N 11 14 1016.8 - 0.0 - Partly cloudy 10 - - - -
21/06:00pm 22.5 N 10 13 1016.5 - 0.0 - Partly cloudy 10 - - - -
21/05:30pm 22.9 N 12 17 1016.3 - 0.0 - Cloudy 10 - - - -
21/05:00pm 23.5 N 12 16 1016.1 - 0.0 - - 10 - - - -
21/04:30pm 24.5 NNE 14 17 1015.4 - 0.0 - - 10 - - - -
21/04:00pm 24.8 NNE 14 17 1015.4 - 0.0 - - 10 - - - -
21/03:30pm 25.7 NNE 13 17 1015.2 - 0.0 - - 10 - - - -
21/03:00pm 26.3 NNE 14 17 1014.9 - 0.0 - - 10 - - - -
21/02:30pm 26.0 NNE 12 16 1015.4 - 0.0 - - 10 - - - -
21/02:00pm 26.7 NNE 13 17 1015.6 - 0.0 - - 10 - - - -
21/01:30pm 27.0 NNE 12 17 1015.9 - 0.0 - Partly cloudy 10 - - - -
21/01:00pm 27.5 N 12 16 1016.3 - 0.0 - Partly cloudy 10 - - - -
21/12:30pm 26.1 N 12 18 1016.8 - 0.0 - Partly cloudy 10 - - - -
21/12:00pm 26.2 NNE 11 20 1017.0 - 0.0 - Partly cloudy 10 - - - -
21/11:30am 27.3 NNE 10 15 1017.5 - 0.0 - Partly cloudy 10 - - - -
21/11:00am 25.7 NNE 7 10 1017.9 - 0.0 - Partly cloudy 10 - - - -
21/10:30am 26.6 ENE 8 13 1018.3 - 0.0 - Partly cloudy 10 - - - -
21/10:00am 25.2 NNE 6 10 1018.6 - 0.0 - - 10 - - - -
21/09:30am 25.5 NNE 5 10 1019.0 - 0.0 - - 10 - - - -
21/09:00am 24.0 NNE 5 8 1019.2 - 0.0 - - 10 - - - -
21/08:30am 23.3 ESE 4 6 1019.4 - 0.0 - Partly cloudy 10 - - - -
21/08:00am 22.1 SE 5 8 1019.4 - 0.0 - Partly cloudy 10 - - - -
21/07:30am 20.4 SSE 6 8 1019.3 - 0.0 - Cloudy 10 - - - -
21/07:00am 19.6 SSE 5 6 1019.2 - 0.0 - Cloudy 10 - - - -
21/06:30am 19.0 SSE 3 6 1018.8 - 0.0 - Cloudy 10 - - - -
21/06:00am 18.7 SSW 1 5 1018.3 - 0.0 - Cloudy 10 - - - -
21/05:30am 18.4 S 7 10 1017.9 - 0.0 - Partly cloudy 10 - - - -
21/05:00am 18.3 S 8 10 1017.7 - 0.0 - Cloudy 10 - - - -
21/04:30am 18.3 SSW 7 9 1017.4 - 0.0 - Cloudy 10 - - - -
21/04:00am 18.2 SSW 6 8 1017.0 - 0.0 - Cloudy 10 - - - -
21/03:30am 17.8 S 6 7 1016.6 - 0.0 - Partly cloudy 10 - - - -
21/03:00am 17.9 SSE 4 6 1016.5 - 0.0 - Partly cloudy 10 - - - -
21/02:30am 18.5 SSE 5 5 1016.5 - 0.0 - Partly cloudy 10 - - - -
21/02:00am 19.1 SE 4 5 1016.9 - 0.0 - Partly cloudy 10 - - - -
21/01:30am 19.5 ESE 5 7 1017.1 - 0.0 - Partly cloudy 10 - - - -
21/01:00am 20.1 SE 6 8 1017.4 - 0.0 - Partly cloudy 10 - - - -
21/12:30am 20.3 SSE 6 8 1017.6 - 0.0 - Partly cloudy 10 - - - -
21/12:00am 20.5 SSE 7 9 1017.8 - 0.0 - Cloudy 10 - - - -
 
Date/Time
EST
Temp
°C
Wind Pressure Rain since
9am
mm
Weather Cloud Vis
km
Sea
Height
m
Swell
Dir  Spd
kts
Gust
kts
hPa Trend Height
m
Period
s
Dir
20/11:30pm 20.7 SSE 7 9 1017.8 - 0.0 - Partly cloudy 10 - - - -
20/11:00pm 20.7 SSE 4 6 1017.9 - 0.0 - Partly cloudy 10 - - - -
20/10:30pm 20.8 S 4 5 1017.8 - 0.0 - Partly cloudy 10 - - - -
20/10:00pm 20.9 SSE 3 5 1017.6 - 0.0 - Partly cloudy 10 - - - -
20/09:30pm 20.7 SSE 3 4 1017.5 - 0.0 - Partly cloudy 10 - - - -
20/09:00pm 20.8 ESE 3 5 1017.4 - 0.0 - Cloudy 10 - - - -
20/08:30pm 20.7 SE 3 5 1017.3 - 0.0 - Cloudy 10 - - - -
20/08:00pm 20.7 SE 3 3 1017.4 - 0.0 - Partly cloudy 10 - - - -
20/07:30pm 21.1 NE 4 5 1016.9 - 0.0 - Partly cloudy 10 - - - -
20/07:00pm 21.3 N 6 8 1016.6 - 0.0 - - 10 - - - -
20/06:30pm 21.6 NNE 7 9 1016.2 - 0.0 - - 10 - - - -
20/06:00pm 22.0 NNE 6 8 1016.0 - 0.0 - - 10 - - - -
20/05:30pm 22.6 NNE 9 18 1015.4 - 0.0 - - 10 - - - -
20/05:00pm 23.6 NNE 10 14 1015.0 - 0.0 - - 10 - - - -
20/04:30pm 24.4 NE 10 13 1014.6 - 0.0 - Partly cloudy 10 - - - -
20/04:00pm 25.0 NE 12 15 1014.3 - 0.0 - Partly cloudy 10 - - - -
20/03:30pm 26.7 ENE 11 16 1014.4 - 0.0 - Partly cloudy 10 - - - -
20/03:00pm 25.7 E 13 17 1014.4 - 0.0 - - 10 - - - -
20/02:30pm 27.0 ENE 12 17 1014.2 - 0.0 - - 10 - - - -
20/02:00pm 27.4 NE 12 16 1014.6 - 0.0 - - 10 - - - -
20/01:30pm 28.0 NE 11 14 1014.9 - 0.0 - - 10 - - - -
20/01:00pm 28.0 NE 12 15 1015.3 - 0.0 - Partly cloudy 10 - - - -
20/12:30pm 30.2 NNE 6 10 1015.5 - 0.0 - - 10 - - - -
20/12:00pm 28.8 SSW 3 6 1016.1 - 0.0 - - 10 - - - -
20/11:30am 28.4 NW 4 7 1016.6 - 0.0 - - 10 - - - -
20/11:00am 27.5 SSW 7 11 1017.4 - 0.0 - - 10 - - - -
20/10:30am 27.2 SSW 7 10 1017.9 - 0.0 - - 10 - - - -
20/10:00am 26.0 SW 5 9 1018.1 - 0.0 - - 10 - - - -
20/09:30am 24.5 WNW 6 9 1018.5 - 0.0 - - 10 - - - -
20/09:00am 23.8 NW 7 10 1019.0 - 0.0 - - 10 - - - -
20/08:30am 21.9 NW 5 7 1019.3 - 0.0 - - 10 - - - -
20/08:00am 21.1 NW 6 7 1019.4 - 0.0 - - 10 - - - -
20/07:30am 19.9 NW 5 6 1019.2 - 0.0 - - 10 - - - -
20/07:00am 18.0 WNW 4 5 1019.0 - 0.0 - - 10 - - - -
20/06:30am 15.4 NW 4 5 1018.7 - 0.0 - - 10 - - - -
20/06:00am 14.4 CALM 0 0 1018.4 - 0.0 - - 10 - - - -
20/05:30am 15.5 CALM 0 0 1017.2 - 0.0 - - 10 - - - -
20/05:00am 16.0 CALM 0 0 1017.2 - 0.0 - - 10 - - - -
20/04:30am 16.2 CALM 0 0 1017.0 - 0.0 - - 10 - - - -
20/04:00am 16.5 CALM 0 0 1017.0 - 0.0 - - 10 - - - -
20/03:30am 16.8 WSW 4 5 1017.1 - 0.0 - - 10 - - - -
20/03:00am 16.9 W 5 6 1016.8 - 0.0 - Mostly clear 10 - - - -
20/02:30am 17.1 NW 6 7 1016.7 - 0.0 - - 10 - - - -
20/02:00am 17.4 NNW 6 7 1016.9 - 0.0 - - 10 - - - -
20/01:30am 17.3 NW 6 7 1017.4 - 0.0 - - 10 - - - -

Other Formats:

Comma delimited format used in spreadsheet applications
http://www.bom.gov.au/fwo/IDQ60701/IDQ60701.94387.axf

JavaScript Object Notation format (JSON) in row-major order
http://www.bom.gov.au/fwo/IDQ60701/IDQ60701.94387.json